createdAt,value
2018-02-10T00:00:18.133Z,4.93
2018-02-10T00:02:46.580Z,4.23
2018-02-10T00:05:15.980Z,3.37
2018-02-10T00:07:44.890Z,4.33
2018-02-10T00:10:12.075Z,6.80
2018-02-10T00:12:39.340Z,4.57
2018-02-10T00:15:05.993Z,5.70
2018-02-10T00:17:32.906Z,4.73
2018-02-10T00:20:00.696Z,5.93
2018-02-10T00:22:33.482Z,4.27
2018-02-10T00:25:01.661Z,4.33
2018-02-10T00:27:28.714Z,5.43
2018-02-10T00:29:56.482Z,4.30
2018-02-10T00:32:25.031Z,4.70
2018-02-10T00:34:52.390Z,4.00
2018-02-10T00:37:20.665Z,6.00
2018-02-10T00:39:49.403Z,4.53
2018-02-10T00:42:18.550Z,5.70
2018-02-10T00:44:46.274Z,3.87
2018-02-10T00:47:14.481Z,4.77
2018-02-10T00:49:41.708Z,5.30
2018-02-10T00:52:08.655Z,5.93
2018-02-10T00:54:35.819Z,4.17
2018-02-10T00:57:02.806Z,4.67
2018-02-10T00:59:29.619Z,4.23
2018-02-10T01:01:56.672Z,5.27
2018-02-10T01:04:23.518Z,4.33
2018-02-10T01:06:52.860Z,5.60
2018-02-10T01:09:20.905Z,4.40
2018-02-10T01:11:47.702Z,7.53
2018-02-10T01:14:15.109Z,5.27
2018-02-10T01:16:41.857Z,5.73
2018-02-10T01:19:11.104Z,4.87
2018-02-10T01:21:37.802Z,7.30
2018-02-10T01:24:04.856Z,4.83
2018-02-10T01:26:33.716Z,4.90
2018-02-10T01:29:00.505Z,4.63
2018-02-10T01:31:28.986Z,4.97
2018-02-10T01:33:55.878Z,4.70
2018-02-10T01:36:23.509Z,5.07
2018-02-10T01:38:51.243Z,5.13
2018-02-10T01:41:18.234Z,4.37
2018-02-10T01:43:47.330Z,4.40
2018-02-10T01:46:14.253Z,5.00
2018-02-10T01:48:41.909Z,4.20
2018-02-10T01:51:08.655Z,4.27
2018-02-10T01:53:35.405Z,4.23
2018-02-10T01:56:03.408Z,3.73
2018-02-10T01:58:30.422Z,4.40
2018-02-10T02:00:57.865Z,4.10
2018-02-10T02:03:25.076Z,4.50
2018-02-10T02:05:52.032Z,4.60
2018-02-10T02:08:18.936Z,3.70
2018-02-10T02:10:45.656Z,6.10
2018-02-10T02:13:13.293Z,4.10
2018-02-10T02:15:40.342Z,4.23
2018-02-10T02:18:07.092Z,3.97
2018-02-10T02:20:34.347Z,5.00
2018-02-10T02:23:01.096Z,3.70
2018-02-10T02:25:27.947Z,4.70
2018-02-10T02:27:54.686Z,4.47
2018-02-10T02:30:21.536Z,5.40
2018-02-10T02:32:49.103Z,4.30
2018-02-10T02:35:15.849Z,4.03
2018-02-10T02:37:42.991Z,6.60
2018-02-10T02:40:10.876Z,3.70
2018-02-10T02:42:37.629Z,4.63
2018-02-10T02:45:05.098Z,4.10
2018-02-10T02:47:32.018Z,4.70
2018-02-10T02:49:59.600Z,4.20
2018-02-10T02:52:26.350Z,7.37
2018-02-10T02:54:53.399Z,5.47
2018-02-10T02:57:20.556Z,4.63
2018-02-10T02:59:47.159Z,4.50
2018-02-10T03:02:14.867Z,6.03
2018-02-10T03:04:41.611Z,4.10
2018-02-10T03:07:08.666Z,4.80
2018-02-10T03:09:35.513Z,4.90
2018-02-10T03:12:02.341Z,4.60
2018-02-10T03:14:30.233Z,5.60
2018-02-10T03:16:57.083Z,4.23
2018-02-10T03:19:24.197Z,7.20
2018-02-10T03:21:50.814Z,4.80
2018-02-10T03:24:17.529Z,5.03
2018-02-10T03:26:44.271Z,4.87
2018-02-10T03:29:11.019Z,4.83
2018-02-10T03:31:37.765Z,4.87
2018-02-10T03:34:04.591Z,5.53
2018-02-10T03:36:32.155Z,5.57
2018-02-10T03:38:58.923Z,6.23
2018-02-10T03:41:26.059Z,8.13
2018-02-10T03:43:53.953Z,4.10
2018-02-10T03:46:21.727Z,4.60
2018-02-10T03:48:48.984Z,4.53
2018-02-10T03:51:15.828Z,4.30
2018-02-10T03:53:42.590Z,4.43
2018-02-10T03:56:09.299Z,4.30
2018-02-10T03:58:36.478Z,4.37
2018-02-10T04:01:03.943Z,4.00
2018-02-10T04:03:30.892Z,4.93
2018-02-10T04:05:57.898Z,5.97
2018-02-10T04:08:24.945Z,4.70
2018-02-10T04:10:52.151Z,4.00
2018-02-10T04:13:19.208Z,3.93
2018-02-10T04:15:46.464Z,4.17
2018-02-10T04:18:13.625Z,3.80
2018-02-10T04:20:40.470Z,4.60
2018-02-10T04:23:08.259Z,4.20
2018-02-10T04:25:35.600Z,4.10
2018-02-10T04:28:02.446Z,4.60
2018-02-10T04:30:29.290Z,4.73
2018-02-10T04:32:56.014Z,4.33
2018-02-10T04:35:24.940Z,4.67
2018-02-10T04:37:51.836Z,6.13
2018-02-10T04:40:18.520Z,4.47
2018-02-10T04:42:45.341Z,3.73
2018-02-10T04:45:12.218Z,4.43
2018-02-10T04:47:39.653Z,5.43
2018-02-10T04:50:06.849Z,5.03
2018-02-10T04:52:33.900Z,6.33
2018-02-10T04:55:01.161Z,5.63
2018-02-10T04:57:27.834Z,4.87
2018-02-10T04:59:55.063Z,4.77
2018-02-10T05:02:21.910Z,7.43
2018-02-10T05:04:48.661Z,5.93
2018-02-10T05:07:15.504Z,5.37
2018-02-10T05:09:42.760Z,4.27
2018-02-10T05:12:09.427Z,4.93
2018-02-10T05:14:36.082Z,5.10
2018-02-10T05:17:03.107Z,5.00
2018-02-10T05:19:29.771Z,5.30
2018-02-10T05:21:57.402Z,4.77
2018-02-10T05:24:25.285Z,5.03
2018-02-10T05:26:52.135Z,4.33
2018-02-10T05:29:19.596Z,4.13
2018-02-10T05:31:46.315Z,5.33
2018-02-10T05:34:13.025Z,4.43
2018-02-10T05:36:39.739Z,4.73
2018-02-10T05:39:06.889Z,6.53
2018-02-10T05:41:33.875Z,5.53
2018-02-10T05:44:00.802Z,4.93
2018-02-10T05:46:27.596Z,5.60
2018-02-10T05:48:54.210Z,9.37
2018-02-10T05:51:21.325Z,5.73
2018-02-10T05:53:49.000Z,5.47
2018-02-10T05:56:16.468Z,5.73
2018-02-10T05:58:43.317Z,4.83
2018-02-10T06:01:10.140Z,4.87
2018-02-10T06:03:38.752Z,5.50
2018-02-10T06:06:06.013Z,4.73
2018-02-10T06:08:32.759Z,3.87
2018-02-10T06:10:59.505Z,4.03
2018-02-10T06:13:26.430Z,5.30
2018-02-10T06:15:53.992Z,4.87
2018-02-10T06:18:21.488Z,4.73
2018-02-10T06:20:48.432Z,4.20
2018-02-10T06:23:15.167Z,4.90
2018-02-10T06:28:16.755Z,4.30
2018-02-10T06:30:43.371Z,4.67
2018-02-10T06:33:10.166Z,5.77
2018-02-10T06:35:36.993Z,5.53
2018-02-10T06:38:04.256Z,4.93
2018-02-10T06:40:31.206Z,5.50
2018-02-10T06:42:57.951Z,5.00
2018-02-10T06:45:24.667Z,4.33
2018-02-10T06:47:51.339Z,5.13
2018-02-10T06:50:18.292Z,4.33
2018-02-10T06:52:44.964Z,4.87
2018-02-10T06:55:11.770Z,6.10
2018-02-10T06:57:38.849Z,5.60
2018-02-10T07:00:05.745Z,7.07
2018-02-10T07:02:33.044Z,4.97
2018-02-10T07:05:00.063Z,4.97
2018-02-10T07:07:26.785Z,5.00
2018-02-10T07:09:53.587Z,5.30
2018-02-10T07:12:20.267Z,5.53
2018-02-10T07:14:47.274Z,5.20
2018-02-10T07:17:14.753Z,6.37
2018-02-10T07:19:41.779Z,5.67
2018-02-10T07:22:09.163Z,5.60
2018-02-10T07:24:35.914Z,5.43
2018-02-10T07:27:03.173Z,4.90
2018-02-10T07:29:30.020Z,4.73
2018-02-10T07:31:56.763Z,5.33
2018-02-10T07:34:23.507Z,4.40
2018-02-10T07:36:50.161Z,5.77
2018-02-10T07:39:16.790Z,4.33
2018-02-10T07:41:44.439Z,4.80
2018-02-10T07:44:12.847Z,4.83
2018-02-10T07:46:40.004Z,4.50
2018-02-10T07:49:06.723Z,3.90
2018-02-10T07:51:34.133Z,4.27
2018-02-10T07:54:01.085Z,4.37
2018-02-10T07:56:27.781Z,4.30
2018-02-10T07:58:55.225Z,4.13
2018-02-10T08:01:21.970Z,5.10
2018-02-10T08:03:48.567Z,5.07
2018-02-10T08:06:16.067Z,4.77
2018-02-10T08:08:43.260Z,5.10
2018-02-10T08:11:11.254Z,5.20
2018-02-10T08:13:38.181Z,4.03
2018-02-10T08:16:05.668Z,4.50
2018-02-10T08:18:32.705Z,4.43
2018-02-10T08:21:00.105Z,4.93
2018-02-10T08:23:26.921Z,4.10
2018-02-10T08:25:53.632Z,4.90
2018-02-10T08:28:23.835Z,5.17
2018-02-10T08:30:50.831Z,4.77
2018-02-10T08:33:18.574Z,4.50
2018-02-10T08:35:45.370Z,4.87
2018-02-10T08:38:12.411Z,4.67
2018-02-10T08:40:39.680Z,4.63
2018-02-10T08:43:06.631Z,4.80
2018-02-10T08:45:33.682Z,4.47
2018-02-10T08:48:00.737Z,4.93
2018-02-10T08:50:27.483Z,5.23
2018-02-10T08:52:54.229Z,5.00
2018-02-10T08:55:21.035Z,5.20
2018-02-10T08:57:48.642Z,5.23
2018-02-10T09:00:15.530Z,5.17
2018-02-10T09:02:42.342Z,4.90
2018-02-10T09:05:09.193Z,4.90
2018-02-10T09:07:35.923Z,4.20
2018-02-10T09:10:03.503Z,4.60
2018-02-10T09:12:30.222Z,4.97
2018-02-10T09:14:57.311Z,4.40
2018-02-10T09:17:24.155Z,6.20
2018-02-10T09:19:50.896Z,4.50
2018-02-10T09:22:17.644Z,4.17
2018-02-10T09:24:44.395Z,4.37
2018-02-10T09:27:11.547Z,4.13
2018-02-10T09:29:38.290Z,4.47
2018-02-10T09:32:05.384Z,4.17
2018-02-10T09:34:32.195Z,4.10
2018-02-10T09:36:58.941Z,4.17
2018-02-10T09:39:25.992Z,4.37
2018-02-10T09:41:53.044Z,3.67
2018-02-10T09:44:19.794Z,4.73
2018-02-10T09:46:46.768Z,3.43
2018-02-10T09:49:13.492Z,4.30
2018-02-10T09:51:40.942Z,4.37
2018-02-10T09:54:08.417Z,3.97
2018-02-10T09:56:35.135Z,3.73
2018-02-10T09:59:02.066Z,3.67
2018-02-10T10:01:30.393Z,3.53
2018-02-10T10:03:57.032Z,3.80
2018-02-10T10:06:23.838Z,4.20
2018-02-10T10:08:51.238Z,4.13
2018-02-10T10:11:18.606Z,4.10
2018-02-10T10:13:45.262Z,4.33
2018-02-10T10:16:12.209Z,4.20
2018-02-10T10:18:39.001Z,3.67
2018-02-10T10:21:06.782Z,3.90
2018-02-10T10:23:33.723Z,4.00
2018-02-10T10:26:00.335Z,4.30
2018-02-10T10:28:27.364Z,3.53
2018-02-10T10:30:53.999Z,3.47
2018-02-10T10:33:21.375Z,3.90
2018-02-10T10:35:48.070Z,3.70
2018-02-10T10:38:14.997Z,3.90
2018-02-10T10:40:41.709Z,4.00
2018-02-10T10:43:15.721Z,3.83
2018-02-10T10:45:42.633Z,3.77
2018-02-10T10:48:09.264Z,4.23
2018-02-10T10:50:35.920Z,3.53
2018-02-10T10:53:02.567Z,3.47
2018-02-10T10:55:29.260Z,3.67
2018-02-10T10:57:55.886Z,4.43
2018-02-10T11:00:24.199Z,3.27
2018-02-10T11:02:50.887Z,3.70
2018-02-10T11:05:18.274Z,4.23
2018-02-10T11:07:44.887Z,3.90
2018-02-10T11:10:11.811Z,4.33
2018-02-10T11:12:38.490Z,4.20
2018-02-10T11:15:05.890Z,4.20
2018-02-10T11:17:32.681Z,5.33
2018-02-10T11:20:00.231Z,3.97
2018-02-10T11:22:27.539Z,4.17
2018-02-10T11:24:55.232Z,4.10
2018-02-10T11:27:22.190Z,5.53
2018-02-10T11:29:48.865Z,5.87
2018-02-10T11:32:15.535Z,7.13
2018-02-10T11:34:43.064Z,7.63
2018-02-10T11:37:10.343Z,7.00
2018-02-10T11:39:38.854Z,7.23
2018-02-10T11:42:06.027Z,7.53
2018-02-10T11:44:33.319Z,6.70
2018-02-10T11:47:00.234Z,8.43
2018-02-10T11:49:26.854Z,7.73
2018-02-10T11:51:54.261Z,7.03
2018-02-10T11:54:20.923Z,7.87
2018-02-10T11:56:47.738Z,7.83
2018-02-10T11:59:14.474Z,7.57
2018-02-10T12:01:41.325Z,6.87
2018-02-10T12:04:08.173Z,6.83
2018-02-10T12:06:35.433Z,8.27
2018-02-10T12:09:03.304Z,8.50
2018-02-10T12:11:30.150Z,9.07
2018-02-10T12:13:57.104Z,9.20
2018-02-10T12:16:24.668Z,7.50
2018-02-10T12:18:52.190Z,7.47
2018-02-10T12:21:18.905Z,7.83
2018-02-10T12:23:45.537Z,6.37
2018-02-10T12:26:12.221Z,8.60
2018-02-10T12:28:39.711Z,7.80
2018-02-10T12:31:06.372Z,7.63
2018-02-10T12:33:33.226Z,6.03
2018-02-10T12:36:00.081Z,8.07
2018-02-10T12:38:26.795Z,6.23
2018-02-10T12:40:54.277Z,5.63
2018-02-10T12:43:20.882Z,4.83
2018-02-10T12:45:47.538Z,5.23
2018-02-10T12:48:31.197Z,5.20
2018-02-10T12:50:57.840Z,4.67
2018-02-10T12:53:24.591Z,7.20
2018-02-10T12:55:51.332Z,11.10
2018-02-10T12:58:18.592Z,6.03
2018-02-10T13:00:45.443Z,20.17
2018-02-10T13:03:12.280Z,8.53
2018-02-10T13:05:39.245Z,7.80
2018-02-10T13:08:05.910Z,5.90
2018-02-10T13:10:32.582Z,6.00
2018-02-10T13:12:59.273Z,4.93
2018-02-10T13:15:26.006Z,3.97
2018-02-10T13:17:52.779Z,3.97
2018-02-10T13:20:19.514Z,4.10
2018-02-10T13:22:46.261Z,4.23
2018-02-10T13:25:13.258Z,4.30
2018-02-10T13:27:39.979Z,4.90
2018-02-10T13:30:07.038Z,5.47
2018-02-10T13:32:33.722Z,3.53
2018-02-10T13:35:00.389Z,3.77
2018-02-10T13:37:28.106Z,3.43
2018-02-10T13:39:54.815Z,6.90
2018-02-10T13:42:23.438Z,3.67
2018-02-10T13:44:50.479Z,3.43
2018-02-10T13:47:17.133Z,3.40
2018-02-10T13:49:44.257Z,3.47
2018-02-10T13:52:11.307Z,3.20
2018-02-10T13:54:38.233Z,3.40
2018-02-10T13:57:05.835Z,3.30
2018-02-10T13:59:32.885Z,3.00
2018-02-10T14:01:59.568Z,2.87
2018-02-10T14:04:26.569Z,5.70
2018-02-10T14:06:53.748Z,2.63
2018-02-10T14:09:21.107Z,3.17
2018-02-10T14:11:47.759Z,3.63
2018-02-10T14:14:14.482Z,2.80
2018-02-10T14:16:41.129Z,3.03
2018-02-10T14:19:07.822Z,3.53
2018-02-10T14:21:34.872Z,3.70
2018-02-10T14:24:02.329Z,3.40
2018-02-10T14:26:29.240Z,3.03
2018-02-10T14:28:56.902Z,3.23
2018-02-10T14:31:23.651Z,2.93
2018-02-10T14:33:51.119Z,3.00
2018-02-10T14:36:17.861Z,3.00
2018-02-10T14:38:44.708Z,2.70
2018-02-10T14:41:11.970Z,3.13
2018-02-10T14:43:38.596Z,3.10
2018-02-10T14:46:05.712Z,2.63
2018-02-10T14:48:32.374Z,3.20
2018-02-10T14:50:59.760Z,5.47
2018-02-10T14:53:26.895Z,4.37
2018-02-10T14:55:53.577Z,3.60
2018-02-10T14:58:20.314Z,3.23
2018-02-10T15:00:47.090Z,3.10
2018-02-10T15:03:14.237Z,3.00
2018-02-10T15:05:41.195Z,3.03
2018-02-10T15:08:07.892Z,2.93
2018-02-10T15:10:34.895Z,2.87
2018-02-10T15:13:01.710Z,2.73
2018-02-10T15:15:28.457Z,2.73
2018-02-10T15:17:55.097Z,2.70
2018-02-10T15:20:22.077Z,2.60
2018-02-10T15:22:48.800Z,2.40
2018-02-10T15:25:15.649Z,3.00
2018-02-10T15:27:42.396Z,2.70
2018-02-10T15:30:21.317Z,2.83
2018-02-10T15:33:00.153Z,2.40
2018-02-10T15:35:26.888Z,3.00
2018-02-10T15:37:53.571Z,2.70
2018-02-10T15:40:20.310Z,2.80
2018-02-10T15:42:47.022Z,2.40
2018-02-10T15:45:15.676Z,2.57
2018-02-10T15:47:42.580Z,2.67
2018-02-10T15:50:09.411Z,2.60
2018-02-10T15:52:36.672Z,2.80
2018-02-10T15:55:03.304Z,2.40
2018-02-10T15:57:30.282Z,2.63
2018-02-10T15:59:57.150Z,2.50
2018-02-10T16:02:23.838Z,2.90
2018-02-10T16:04:51.254Z,2.97
2018-02-10T16:07:18.073Z,2.30
2018-02-10T16:09:44.813Z,3.13
2018-02-10T16:12:11.569Z,3.00
2018-02-10T16:14:38.412Z,2.87
2018-02-10T16:17:05.156Z,2.90
2018-02-10T16:19:31.899Z,2.93
2018-02-10T16:21:58.909Z,3.03
2018-02-10T16:24:25.548Z,2.97
2018-02-10T16:26:52.503Z,3.10
2018-02-10T16:29:19.195Z,3.13
2018-02-10T16:31:45.859Z,3.17
2018-02-10T16:34:12.838Z,3.43
2018-02-10T16:36:39.519Z,2.90
2018-02-10T16:39:06.894Z,3.30
2018-02-10T16:41:33.565Z,3.07
2018-02-10T16:44:00.696Z,3.30
2018-02-10T16:46:27.443Z,3.00
2018-02-10T16:48:54.187Z,3.27
2018-02-10T16:51:20.827Z,4.87
2018-02-10T16:53:47.478Z,3.33
2018-02-10T16:56:14.221Z,3.10
2018-02-10T16:58:40.866Z,3.40
2018-02-10T17:01:07.618Z,3.50
2018-02-10T17:03:34.458Z,3.13
2018-02-10T17:06:01.207Z,3.47
2018-02-10T17:08:27.854Z,3.30
2018-02-10T17:10:54.904Z,5.50
2018-02-10T17:13:21.951Z,3.30
2018-02-10T17:15:48.809Z,3.60
2018-02-10T17:18:15.550Z,3.33
2018-02-10T17:20:42.346Z,3.43
2018-02-10T17:23:09.865Z,3.00
2018-02-10T17:25:36.812Z,3.27
2018-02-10T17:28:04.480Z,3.90
2018-02-10T17:30:31.635Z,3.63
2018-02-10T17:32:58.388Z,3.40
2018-02-10T17:35:25.129Z,3.43
2018-02-10T17:37:51.772Z,3.13
2018-02-10T17:40:18.518Z,3.67
2018-02-10T17:42:45.267Z,3.77
2018-02-10T17:45:12.119Z,3.47
2018-02-10T17:47:38.744Z,3.53
2018-02-10T17:50:05.391Z,3.20
2018-02-10T17:52:32.047Z,2.90
2018-02-10T17:54:59.613Z,3.40
2018-02-10T17:57:26.254Z,3.57
2018-02-10T17:59:53.228Z,2.93
2018-02-10T18:02:20.057Z,2.90
2018-02-10T18:04:46.905Z,2.87
2018-02-10T18:07:14.876Z,3.00
2018-02-10T18:09:41.494Z,3.20
2018-02-10T18:12:08.986Z,4.03
2018-02-10T18:14:35.945Z,2.90
2018-02-10T18:17:02.571Z,2.80
2018-02-10T18:19:29.254Z,3.17
2018-02-10T18:21:55.885Z,2.47
2018-02-10T18:24:22.947Z,2.87
2018-02-10T18:26:49.669Z,2.73
2018-02-10T18:31:45.307Z,3.10
2018-02-10T18:34:12.159Z,3.07
2018-02-10T18:36:38.861Z,2.70
2018-02-10T18:39:05.723Z,3.17
2018-02-10T18:41:33.187Z,6.60
2018-02-10T18:44:01.367Z,4.27
2018-02-10T18:46:29.678Z,4.43
2018-02-10T18:48:56.395Z,3.60
2018-02-10T18:51:23.063Z,2.97
2018-02-10T18:53:50.321Z,2.23
2018-02-10T18:56:17.203Z,2.13
2018-02-10T18:58:44.839Z,2.33
2018-02-10T19:01:11.788Z,2.30
2018-02-10T19:03:38.588Z,2.73
2018-02-10T19:06:05.691Z,2.47
2018-02-10T19:08:33.258Z,2.30
2018-02-10T19:11:00.308Z,2.10
2018-02-10T19:13:27.365Z,2.50
2018-02-10T19:15:54.215Z,3.60
2018-02-10T19:18:21.469Z,2.30
2018-02-10T19:20:48.411Z,1.97
2018-02-10T19:23:15.985Z,2.17
2018-02-10T19:25:42.735Z,3.07
2018-02-10T19:28:09.888Z,2.40
2018-02-10T19:30:37.041Z,2.83
2018-02-10T19:33:03.995Z,2.30
2018-02-10T19:35:30.856Z,2.53
2018-02-10T19:37:57.694Z,2.43
2018-02-10T19:40:32.970Z,2.27
2018-02-10T19:42:59.655Z,2.30
2018-02-10T19:45:27.550Z,1.93
2018-02-10T19:47:54.364Z,2.50
2018-02-10T19:50:21.453Z,2.47
2018-02-10T19:52:49.325Z,2.30
2018-02-10T19:55:16.477Z,2.43
2018-02-10T19:57:43.736Z,2.30
2018-02-10T20:00:12.737Z,2.13
2018-02-10T20:02:40.658Z,2.13
2018-02-10T20:05:07.724Z,2.17
2018-02-10T20:07:34.539Z,2.27
2018-02-10T20:10:01.638Z,2.27
2018-02-10T20:12:30.014Z,2.10
2018-02-10T20:14:57.481Z,2.40
2018-02-10T20:17:25.343Z,3.20
2018-02-10T20:19:54.122Z,2.53
2018-02-10T20:22:21.320Z,2.30
2018-02-10T20:24:48.332Z,2.40
2018-02-10T20:27:16.825Z,2.27
2018-02-10T20:29:44.568Z,2.30
2018-02-10T20:32:11.664Z,2.30
2018-02-10T20:34:38.646Z,1.97
2018-02-10T20:37:05.804Z,2.40
2018-02-10T20:39:33.748Z,2.60
2018-02-10T20:42:01.949Z,3.13
2018-02-10T20:44:28.738Z,2.50
2018-02-10T20:46:56.778Z,2.00
2018-02-10T20:49:24.758Z,2.33
2018-02-10T20:51:52.238Z,1.97
2018-02-10T20:54:19.734Z,2.40
2018-02-10T20:56:47.546Z,2.63
2018-02-10T20:59:14.329Z,2.83
2018-02-10T21:01:42.201Z,2.00
2018-02-10T21:04:09.850Z,2.57
2018-02-10T21:06:38.418Z,3.30
2018-02-10T21:09:07.877Z,2.60
2018-02-10T21:11:35.648Z,2.90
2018-02-10T21:14:03.028Z,2.57
2018-02-10T21:16:30.093Z,2.73
2018-02-10T21:18:57.782Z,2.60
2018-02-10T21:21:25.533Z,2.40
2018-02-10T21:23:53.430Z,2.80
2018-02-10T21:26:20.654Z,2.43
2018-02-10T21:28:48.599Z,2.70
2018-02-10T21:31:16.720Z,2.77
2018-02-10T21:33:43.804Z,3.07
2018-02-10T21:36:11.645Z,2.97
2018-02-10T21:38:38.267Z,3.30
2018-02-10T21:41:06.199Z,2.60
2018-02-10T21:43:33.982Z,2.67
2018-02-10T21:46:00.793Z,3.13
2018-02-10T21:48:27.845Z,2.70
2018-02-10T21:50:55.615Z,2.40
2018-02-10T21:53:23.500Z,2.87
2018-02-10T21:55:50.566Z,2.73
2018-02-10T21:58:17.232Z,2.40
2018-02-10T22:00:45.932Z,2.63
2018-02-10T22:03:13.497Z,2.33
2018-02-10T22:05:41.930Z,2.50
2018-02-10T22:08:10.334Z,2.10
2018-02-10T22:10:37.980Z,2.40
2018-02-10T22:13:05.891Z,2.10
2018-02-10T22:15:33.115Z,2.87
2018-02-10T22:17:59.902Z,2.30
2018-02-10T22:20:27.341Z,2.27
2018-02-10T22:22:54.345Z,2.57
2018-02-10T22:25:22.049Z,2.63
2018-02-10T22:27:48.846Z,2.33
2018-02-10T22:30:16.382Z,2.27
2018-02-10T22:32:43.375Z,1.97
2018-02-10T22:35:11.121Z,2.10
2018-02-10T22:37:38.612Z,2.10
2018-02-10T22:40:06.106Z,2.17
2018-02-10T22:42:34.138Z,2.27
2018-02-10T22:45:01.144Z,2.40
2018-02-10T22:47:28.638Z,2.00
2018-02-10T22:49:55.337Z,2.00
2018-02-10T22:52:22.262Z,2.27
2018-02-10T22:54:48.971Z,2.63
2018-02-10T22:57:16.058Z,2.50
2018-02-10T22:59:43.735Z,2.47
2018-02-10T23:02:11.003Z,2.20
2018-02-10T23:04:38.135Z,2.40
2018-02-10T23:07:06.644Z,3.37
2018-02-10T23:09:33.383Z,2.23
2018-02-10T23:12:01.776Z,2.50
2018-02-10T23:14:29.856Z,2.60
2018-02-10T23:16:56.552Z,2.80
2018-02-10T23:19:23.265Z,2.40
2018-02-10T23:21:50.146Z,2.30
2018-02-10T23:24:17.344Z,2.30
2018-02-10T23:26:44.402Z,2.70
2018-02-10T23:29:11.455Z,2.53
2018-02-10T23:31:38.714Z,2.73
2018-02-10T23:34:06.459Z,2.53
2018-02-10T23:36:34.973Z,2.80
2018-02-10T23:39:01.834Z,3.10
2018-02-10T23:41:28.773Z,2.80
2018-02-10T23:43:55.826Z,3.13
2018-02-10T23:46:22.449Z,2.80
2018-02-10T23:48:51.518Z,2.53
2018-02-10T23:51:18.353Z,2.27
2018-02-10T23:53:45.423Z,2.80
2018-02-10T23:56:13.480Z,2.93
2018-02-10T23:58:40.071Z,2.80
